sensor_id;sensor_type;location;lat;lon;timestamp;P1;durP1;ratioP1;P2;durP2;ratioP2
16037;SDS011;8123;50.906;6.172;2023-04-15T00:00:40;12.60;;;6.30;;
16037;SDS011;8123;50.906;6.172;2023-04-15T00:03:06;8.07;;;5.00;;
16037;SDS011;8123;50.906;6.172;2023-04-15T00:05:32;8.23;;;5.67;;
16037;SDS011;8123;50.906;6.172;2023-04-15T00:07:58;14.03;;;5.60;;
16037;SDS011;8123;50.906;6.172;2023-04-15T00:10:25;7.73;;;4.47;;
16037;SDS011;8123;50.906;6.172;2023-04-15T00:12:51;13.47;;;5.30;;
16037;SDS011;8123;50.906;6.172;2023-04-15T00:15:17;12.67;;;5.30;;
16037;SDS011;8123;50.906;6.172;2023-04-15T00:17:43;8.40;;;5.00;;
16037;SDS011;8123;50.906;6.172;2023-04-15T00:20:10;7.57;;;4.60;;
16037;SDS011;8123;50.906;6.172;2023-04-15T00:22:35;10.50;;;4.97;;
16037;SDS011;8123;50.906;6.172;2023-04-15T00:25:01;15.33;;;4.20;;
16037;SDS011;8123;50.906;6.172;2023-04-15T00:27:27;8.50;;;4.47;;
16037;SDS011;8123;50.906;6.172;2023-04-15T00:29:53;10.00;;;5.33;;
16037;SDS011;8123;50.906;6.172;2023-04-15T00:32:19;8.73;;;4.40;;
16037;SDS011;8123;50.906;6.172;2023-04-15T00:34:44;11.77;;;4.97;;
16037;SDS011;8123;50.906;6.172;2023-04-15T00:37:11;12.30;;;4.50;;
16037;SDS011;8123;50.906;6.172;2023-04-15T00:39:36;13.23;;;5.13;;
16037;SDS011;8123;50.906;6.172;2023-04-15T00:42:03;13.90;;;4.40;;
16037;SDS011;8123;50.906;6.172;2023-04-15T00:44:29;7.83;;;4.63;;
16037;SDS011;8123;50.906;6.172;2023-04-15T00:46:54;9.93;;;4.93;;
16037;SDS011;8123;50.906;6.172;2023-04-15T00:49:21;5.63;;;4.63;;
16037;SDS011;8123;50.906;6.172;2023-04-15T00:51:47;11.20;;;4.47;;
16037;SDS011;8123;50.906;6.172;2023-04-15T00:54:13;16.73;;;4.73;;
16037;SDS011;8123;50.906;6.172;2023-04-15T00:56:40;14.83;;;4.10;;
16037;SDS011;8123;50.906;6.172;2023-04-15T00:59:06;10.33;;;4.03;;
16037;SDS011;8123;50.906;6.172;2023-04-15T01:01:34;8.23;;;4.53;;
16037;SDS011;8123;50.906;6.172;2023-04-15T01:04:00;27.57;;;4.97;;
16037;SDS011;8123;50.906;6.172;2023-04-15T01:06:27;17.07;;;4.23;;
16037;SDS011;8123;50.906;6.172;2023-04-15T01:08:53;12.40;;;4.90;;
16037;SDS011;8123;50.906;6.172;2023-04-15T01:11:20;16.53;;;4.27;;
16037;SDS011;8123;50.906;6.172;2023-04-15T01:13:46;15.43;;;5.27;;
16037;SDS011;8123;50.906;6.172;2023-04-15T01:16:12;8.60;;;4.33;;
16037;SDS011;8123;50.906;6.172;2023-04-15T01:18:38;8.07;;;4.30;;
16037;SDS011;8123;50.906;6.172;2023-04-15T01:21:05;15.93;;;5.13;;
16037;SDS011;8123;50.906;6.172;2023-04-15T01:23:32;5.03;;;3.67;;
16037;SDS011;8123;50.906;6.172;2023-04-15T01:26:00;9.70;;;5.73;;
16037;SDS011;8123;50.906;6.172;2023-04-15T01:28:27;9.33;;;4.63;;
16037;SDS011;8123;50.906;6.172;2023-04-15T01:31:08;11.20;;;4.70;;
16037;SDS011;8123;50.906;6.172;2023-04-15T01:33:35;15.40;;;5.07;;
16037;SDS011;8123;50.906;6.172;2023-04-15T01:36:02;6.83;;;4.40;;
16037;SDS011;8123;50.906;6.172;2023-04-15T01:38:29;9.43;;;4.97;;
16037;SDS011;8123;50.906;6.172;2023-04-15T01:40:56;12.97;;;5.90;;
16037;SDS011;8123;50.906;6.172;2023-04-15T01:43:22;5.90;;;4.03;;
16037;SDS011;8123;50.906;6.172;2023-04-15T01:45:48;10.27;;;4.50;;
16037;SDS011;8123;50.906;6.172;2023-04-15T01:48:13;21.07;;;4.83;;
16037;SDS011;8123;50.906;6.172;2023-04-15T01:50:39;6.90;;;4.27;;
16037;SDS011;8123;50.906;6.172;2023-04-15T01:53:05;10.67;;;4.60;;
16037;SDS011;8123;50.906;6.172;2023-04-15T01:55:30;11.90;;;5.20;;
16037;SDS011;8123;50.906;6.172;2023-04-15T01:57:56;6.73;;;4.03;;
16037;SDS011;8123;50.906;6.172;2023-04-15T02:00:22;11.07;;;4.03;;
16037;SDS011;8123;50.906;6.172;2023-04-15T02:02:48;6.77;;;3.90;;
16037;SDS011;8123;50.906;6.172;2023-04-15T02:05:13;13.93;;;4.50;;
16037;SDS011;8123;50.906;6.172;2023-04-15T02:07:40;8.70;;;4.33;;
16037;SDS011;8123;50.906;6.172;2023-04-15T02:10:07;7.20;;;3.83;;
16037;SDS011;8123;50.906;6.172;2023-04-15T02:12:34;6.97;;;3.57;;
16037;SDS011;8123;50.906;6.172;2023-04-15T02:15:00;11.40;;;4.57;;
16037;SDS011;8123;50.906;6.172;2023-04-15T02:17:26;10.67;;;4.20;;
16037;SDS011;8123;50.906;6.172;2023-04-15T02:19:51;11.97;;;4.90;;
16037;SDS011;8123;50.906;6.172;2023-04-15T02:22:17;11.73;;;4.00;;
16037;SDS011;8123;50.906;6.172;2023-04-15T02:24:43;16.67;;;4.27;;
16037;SDS011;8123;50.906;6.172;2023-04-15T02:27:10;14.60;;;4.90;;
16037;SDS011;8123;50.906;6.172;2023-04-15T02:29:39;24.90;;;5.23;;
16037;SDS011;8123;50.906;6.172;2023-04-15T02:32:05;11.80;;;5.23;;
16037;SDS011;8123;50.906;6.172;2023-04-15T02:34:31;10.67;;;4.80;;
16037;SDS011;8123;50.906;6.172;2023-04-15T02:36:57;11.73;;;4.70;;
16037;SDS011;8123;50.906;6.172;2023-04-15T02:39:23;16.67;;;4.97;;
16037;SDS011;8123;50.906;6.172;2023-04-15T02:41:49;9.20;;;5.33;;
16037;SDS011;8123;50.906;6.172;2023-04-15T02:44:17;15.03;;;4.73;;
16037;SDS011;8123;50.906;6.172;2023-04-15T02:46:44;12.80;;;5.23;;
16037;SDS011;8123;50.906;6.172;2023-04-15T02:49:16;13.83;;;5.60;;
16037;SDS011;8123;50.906;6.172;2023-04-15T02:51:42;12.33;;;5.10;;
16037;SDS011;8123;50.906;6.172;2023-04-15T02:54:11;17.03;;;5.50;;
16037;SDS011;8123;50.906;6.172;2023-04-15T02:56:37;22.70;;;5.87;;
16037;SDS011;8123;50.906;6.172;2023-04-15T02:59:02;14.00;;;5.43;;
16037;SDS011;8123;50.906;6.172;2023-04-15T03:01:28;7.13;;;4.13;;
16037;SDS011;8123;50.906;6.172;2023-04-15T03:03:54;15.83;;;5.40;;
16037;SDS011;8123;50.906;6.172;2023-04-15T03:06:20;8.70;;;4.27;;
16037;SDS011;8123;50.906;6.172;2023-04-15T03:08:45;9.73;;;5.27;;
16037;SDS011;8123;50.906;6.172;2023-04-15T03:11:11;14.90;;;4.77;;
16037;SDS011;8123;50.906;6.172;2023-04-15T03:13:38;12.43;;;4.90;;
16037;SDS011;8123;50.906;6.172;2023-04-15T03:16:05;8.57;;;4.30;;
16037;SDS011;8123;50.906;6.172;2023-04-15T03:18:31;6.80;;;4.17;;
16037;SDS011;8123;50.906;6.172;2023-04-15T03:20:57;12.57;;;4.93;;
16037;SDS011;8123;50.906;6.172;2023-04-15T03:23:22;6.97;;;5.33;;
16037;SDS011;8123;50.906;6.172;2023-04-15T03:25:48;14.17;;;5.93;;
16037;SDS011;8123;50.906;6.172;2023-04-15T03:28:13;18.73;;;5.47;;
16037;SDS011;8123;50.906;6.172;2023-04-15T03:30:39;9.93;;;4.77;;
16037;SDS011;8123;50.906;6.172;2023-04-15T03:33:05;19.60;;;4.90;;
16037;SDS011;8123;50.906;6.172;2023-04-15T03:35:31;29.10;;;6.33;;
16037;SDS011;8123;50.906;6.172;2023-04-15T03:37:57;13.63;;;4.97;;
16037;SDS011;8123;50.906;6.172;2023-04-15T03:40:22;10.50;;;4.40;;
16037;SDS011;8123;50.906;6.172;2023-04-15T03:42:48;15.30;;;5.33;;
16037;SDS011;8123;50.906;6.172;2023-04-15T03:45:13;16.80;;;6.07;;
16037;SDS011;8123;50.906;6.172;2023-04-15T03:47:39;8.20;;;4.77;;
16037;SDS011;8123;50.906;6.172;2023-04-15T03:50:05;16.37;;;5.70;;
16037;SDS011;8123;50.906;6.172;2023-04-15T03:52:31;20.47;;;7.60;;
16037;SDS011;8123;50.906;6.172;2023-04-15T03:54:56;16.00;;;6.30;;
16037;SDS011;8123;50.906;6.172;2023-04-15T03:57:22;8.90;;;5.30;;
16037;SDS011;8123;50.906;6.172;2023-04-15T03:59:48;15.97;;;5.50;;
16037;SDS011;8123;50.906;6.172;2023-04-15T04:02:13;15.70;;;5.60;;
16037;SDS011;8123;50.906;6.172;2023-04-15T04:04:39;11.03;;;4.60;;
16037;SDS011;8123;50.906;6.172;2023-04-15T04:07:05;24.77;;;6.13;;
16037;SDS011;8123;50.906;6.172;2023-04-15T04:09:30;9.87;;;5.47;;
16037;SDS011;8123;50.906;6.172;2023-04-15T04:11:56;12.77;;;4.90;;
16037;SDS011;8123;50.906;6.172;2023-04-15T04:14:22;13.93;;;5.07;;
16037;SDS011;8123;50.906;6.172;2023-04-15T04:16:53;12.30;;;4.90;;
16037;SDS011;8123;50.906;6.172;2023-04-15T04:19:19;11.60;;;5.50;;
16037;SDS011;8123;50.906;6.172;2023-04-15T04:21:44;10.47;;;4.73;;
16037;SDS011;8123;50.906;6.172;2023-04-15T04:24:10;19.03;;;4.90;;
16037;SDS011;8123;50.906;6.172;2023-04-15T04:26:36;13.00;;;5.30;;
16037;SDS011;8123;50.906;6.172;2023-04-15T04:29:01;11.47;;;5.60;;
16037;SDS011;8123;50.906;6.172;2023-04-15T04:31:27;10.73;;;4.53;;
16037;SDS011;8123;50.906;6.172;2023-04-15T04:33:53;12.13;;;4.77;;
16037;SDS011;8123;50.906;6.172;2023-04-15T04:36:18;15.33;;;4.97;;
16037;SDS011;8123;50.906;6.172;2023-04-15T04:38:44;19.70;;;4.83;;
16037;SDS011;8123;50.906;6.172;2023-04-15T04:41:10;16.50;;;5.00;;
16037;SDS011;8123;50.906;6.172;2023-04-15T04:43:35;10.50;;;4.30;;
16037;SDS011;8123;50.906;6.172;2023-04-15T04:46:01;14.67;;;4.33;;
16037;SDS011;8123;50.906;6.172;2023-04-15T04:48:27;12.07;;;4.83;;
16037;SDS011;8123;50.906;6.172;2023-04-15T04:50:52;9.53;;;5.57;;
16037;SDS011;8123;50.906;6.172;2023-04-15T04:53:18;10.83;;;5.30;;
16037;SDS011;8123;50.906;6.172;2023-04-15T04:55:44;12.27;;;4.70;;
16037;SDS011;8123;50.906;6.172;2023-04-15T04:58:09;17.60;;;6.30;;
16037;SDS011;8123;50.906;6.172;2023-04-15T05:00:35;21.03;;;6.90;;
16037;SDS011;8123;50.906;6.172;2023-04-15T05:03:02;11.97;;;5.03;;
16037;SDS011;8123;50.906;6.172;2023-04-15T05:05:28;20.27;;;6.50;;
16037;SDS011;8123;50.906;6.172;2023-04-15T05:07:53;19.03;;;5.50;;
16037;SDS011;8123;50.906;6.172;2023-04-15T05:10:19;16.27;;;6.30;;
16037;SDS011;8123;50.906;6.172;2023-04-15T05:12:45;10.93;;;5.30;;
16037;SDS011;8123;50.906;6.172;2023-04-15T05:15:11;25.13;;;5.70;;
16037;SDS011;8123;50.906;6.172;2023-04-15T05:17:37;8.23;;;4.30;;
16037;SDS011;8123;50.906;6.172;2023-04-15T05:20:02;14.27;;;5.13;;
16037;SDS011;8123;50.906;6.172;2023-04-15T05:22:28;14.77;;;5.30;;
16037;SDS011;8123;50.906;6.172;2023-04-15T05:24:54;16.67;;;5.50;;
16037;SDS011;8123;50.906;6.172;2023-04-15T05:27:20;9.23;;;5.20;;
16037;SDS011;8123;50.906;6.172;2023-04-15T05:29:46;11.13;;;5.97;;
16037;SDS011;8123;50.906;6.172;2023-04-15T05:32:12;17.03;;;5.77;;
16037;SDS011;8123;50.906;6.172;2023-04-15T05:34:38;25.80;;;6.60;;
16037;SDS011;8123;50.906;6.172;2023-04-15T05:37:03;17.00;;;5.20;;
16037;SDS011;8123;50.906;6.172;2023-04-15T05:39:29;15.70;;;4.57;;
16037;SDS011;8123;50.906;6.172;2023-04-15T05:41:56;12.27;;;4.50;;
16037;SDS011;8123;50.906;6.172;2023-04-15T05:44:22;15.67;;;5.27;;
16037;SDS011;8123;50.906;6.172;2023-04-15T05:46:48;11.73;;;4.60;;
16037;SDS011;8123;50.906;6.172;2023-04-15T05:49:13;14.50;;;4.70;;
16037;SDS011;8123;50.906;6.172;2023-04-15T05:51:39;10.47;;;4.80;;
16037;SDS011;8123;50.906;6.172;2023-04-15T05:54:05;18.87;;;4.57;;
16037;SDS011;8123;50.906;6.172;2023-04-15T05:56:31;7.43;;;4.20;;
16037;SDS011;8123;50.906;6.172;2023-04-15T05:58:56;24.80;;;4.70;;
16037;SDS011;8123;50.906;6.172;2023-04-15T06:01:22;9.40;;;5.47;;
16037;SDS011;8123;50.906;6.172;2023-04-15T06:03:48;19.20;;;4.80;;
16037;SDS011;8123;50.906;6.172;2023-04-15T06:06:14;10.60;;;4.23;;
16037;SDS011;8123;50.906;6.172;2023-04-15T06:08:39;29.10;;;5.00;;
16037;SDS011;8123;50.906;6.172;2023-04-15T06:11:05;30.70;;;5.10;;
16037;SDS011;8123;50.906;6.172;2023-04-15T06:13:31;17.60;;;5.73;;
16037;SDS011;8123;50.906;6.172;2023-04-15T06:15:56;17.47;;;6.03;;
16037;SDS011;8123;50.906;6.172;2023-04-15T06:18:22;21.47;;;7.80;;
16037;SDS011;8123;50.906;6.172;2023-04-15T06:20:48;16.90;;;7.87;;
16037;SDS011;8123;50.906;6.172;2023-04-15T06:23:13;13.03;;;6.97;;
16037;SDS011;8123;50.906;6.172;2023-04-15T06:25:39;12.60;;;7.00;;
16037;SDS011;8123;50.906;6.172;2023-04-15T06:28:05;26.10;;;7.43;;
16037;SDS011;8123;50.906;6.172;2023-04-15T06:30:30;24.10;;;6.73;;
16037;SDS011;8123;50.906;6.172;2023-04-15T06:32:56;21.20;;;7.13;;
16037;SDS011;8123;50.906;6.172;2023-04-15T06:35:22;15.73;;;6.23;;
16037;SDS011;8123;50.906;6.172;2023-04-15T06:37:48;10.60;;;6.13;;
16037;SDS011;8123;50.906;6.172;2023-04-15T06:40:14;13.00;;;5.73;;
16037;SDS011;8123;50.906;6.172;2023-04-15T06:42:39;13.50;;;6.40;;
16037;SDS011;8123;50.906;6.172;2023-04-15T06:45:06;12.97;;;5.33;;
16037;SDS011;8123;50.906;6.172;2023-04-15T06:47:32;15.10;;;5.43;;
16037;SDS011;8123;50.906;6.172;2023-04-15T06:49:58;9.93;;;5.90;;
16037;SDS011;8123;50.906;6.172;2023-04-15T06:52:23;21.20;;;6.10;;
16037;SDS011;8123;50.906;6.172;2023-04-15T06:54:49;13.47;;;6.37;;
16037;SDS011;8123;50.906;6.172;2023-04-15T06:57:15;12.23;;;6.40;;
16037;SDS011;8123;50.906;6.172;2023-04-15T06:59:40;18.73;;;6.70;;
16037;SDS011;8123;50.906;6.172;2023-04-15T07:02:07;8.87;;;5.50;;
16037;SDS011;8123;50.906;6.172;2023-04-15T07:04:36;13.77;;;6.30;;
16037;SDS011;8123;50.906;6.172;2023-04-15T07:07:02;12.93;;;6.77;;
16037;SDS011;8123;50.906;6.172;2023-04-15T07:09:27;16.07;;;6.47;;
16037;SDS011;8123;50.906;6.172;2023-04-15T07:11:56;14.33;;;7.23;;
16037;SDS011;8123;50.906;6.172;2023-04-15T07:14:22;16.50;;;6.40;;
16037;SDS011;8123;50.906;6.172;2023-04-15T07:16:47;20.57;;;7.33;;
16037;SDS011;8123;50.906;6.172;2023-04-15T07:19:13;12.80;;;7.20;;
16037;SDS011;8123;50.906;6.172;2023-04-15T07:21:39;15.10;;;7.40;;
16037;SDS011;8123;50.906;6.172;2023-04-15T07:24:05;18.23;;;6.60;;
16037;SDS011;8123;50.906;6.172;2023-04-15T07:26:31;13.10;;;8.70;;
16037;SDS011;8123;50.906;6.172;2023-04-15T07:28:56;20.70;;;6.90;;
16037;SDS011;8123;50.906;6.172;2023-04-15T07:31:22;15.93;;;7.47;;
16037;SDS011;8123;50.906;6.172;2023-04-15T07:33:47;26.53;;;9.33;;
16037;SDS011;8123;50.906;6.172;2023-04-15T07:36:13;10.37;;;8.33;;
16037;SDS011;8123;50.906;6.172;2023-04-15T07:38:39;16.10;;;8.10;;
16037;SDS011;8123;50.906;6.172;2023-04-15T07:41:05;23.30;;;9.23;;
16037;SDS011;8123;50.906;6.172;2023-04-15T07:43:31;14.40;;;9.23;;
16037;SDS011;8123;50.906;6.172;2023-04-15T07:45:56;19.40;;;8.97;;
16037;SDS011;8123;50.906;6.172;2023-04-15T07:48:22;30.00;;;10.90;;
16037;SDS011;8123;50.906;6.172;2023-04-15T07:50:47;17.13;;;8.80;;
16037;SDS011;8123;50.906;6.172;2023-04-15T07:53:13;18.93;;;10.10;;
16037;SDS011;8123;50.906;6.172;2023-04-15T07:55:39;25.87;;;10.80;;
16037;SDS011;8123;50.906;6.172;2023-04-15T07:58:05;25.93;;;10.50;;
16037;SDS011;8123;50.906;6.172;2023-04-15T08:00:30;22.83;;;12.50;;
16037;SDS011;8123;50.906;6.172;2023-04-15T08:02:56;13.07;;;10.53;;
16037;SDS011;8123;50.906;6.172;2023-04-15T08:05:23;20.07;;;12.30;;
16037;SDS011;8123;50.906;6.172;2023-04-15T08:07:49;31.17;;;13.83;;
16037;SDS011;8123;50.906;6.172;2023-04-15T08:10:15;19.13;;;12.83;;
16037;SDS011;8123;50.906;6.172;2023-04-15T08:12:41;19.40;;;12.37;;
16037;SDS011;8123;50.906;6.172;2023-04-15T08:15:07;22.50;;;14.50;;
16037;SDS011;8123;50.906;6.172;2023-04-15T08:17:33;19.80;;;12.60;;
16037;SDS011;8123;50.906;6.172;2023-04-15T08:19:59;24.70;;;12.13;;
16037;SDS011;8123;50.906;6.172;2023-04-15T08:22:24;23.03;;;12.40;;
16037;SDS011;8123;50.906;6.172;2023-04-15T08:24:51;18.33;;;11.87;;
16037;SDS011;8123;50.906;6.172;2023-04-15T08:27:17;20.47;;;12.50;;
16037;SDS011;8123;50.906;6.172;2023-04-15T08:29:43;17.20;;;11.97;;
16037;SDS011;8123;50.906;6.172;2023-04-15T08:32:09;16.53;;;11.57;;
16037;SDS011;8123;50.906;6.172;2023-04-15T08:34:35;19.50;;;11.43;;
16037;SDS011;8123;50.906;6.172;2023-04-15T08:37:00;27.73;;;12.67;;
16037;SDS011;8123;50.906;6.172;2023-04-15T08:39:26;18.33;;;12.40;;
16037;SDS011;8123;50.906;6.172;2023-04-15T08:41:57;15.40;;;9.60;;
16037;SDS011;8123;50.906;6.172;2023-04-15T08:44:27;13.07;;;10.10;;
16037;SDS011;8123;50.906;6.172;2023-04-15T08:46:55;23.67;;;10.80;;
16037;SDS011;8123;50.906;6.172;2023-04-15T08:49:25;19.83;;;12.53;;
16037;SDS011;8123;50.906;6.172;2023-04-15T08:51:52;12.87;;;9.63;;
16037;SDS011;8123;50.906;6.172;2023-04-15T08:54:20;16.40;;;9.30;;
16037;SDS011;8123;50.906;6.172;2023-04-15T08:56:46;19.70;;;8.40;;
16037;SDS011;8123;50.906;6.172;2023-04-15T08:59:13;12.00;;;8.50;;
16037;SDS011;8123;50.906;6.172;2023-04-15T09:01:40;12.67;;;8.17;;
16037;SDS011;8123;50.906;6.172;2023-04-15T09:04:06;12.27;;;8.13;;
16037;SDS011;8123;50.906;6.172;2023-04-15T09:06:32;10.33;;;7.73;;
16037;SDS011;8123;50.906;6.172;2023-04-15T09:08:58;15.83;;;8.43;;
16037;SDS011;8123;50.906;6.172;2023-04-15T09:11:24;17.20;;;9.10;;
16037;SDS011;8123;50.906;6.172;2023-04-15T09:13:50;11.30;;;8.47;;
16037;SDS011;8123;50.906;6.172;2023-04-15T09:16:16;14.23;;;7.50;;
16037;SDS011;8123;50.906;6.172;2023-04-15T09:18:42;9.67;;;7.53;;
16037;SDS011;8123;50.906;6.172;2023-04-15T09:21:09;13.20;;;7.90;;
16037;SDS011;8123;50.906;6.172;2023-04-15T09:23:37;14.17;;;7.67;;
16037;SDS011;8123;50.906;6.172;2023-04-15T09:26:04;10.60;;;7.77;;
16037;SDS011;8123;50.906;6.172;2023-04-15T09:28:30;10.80;;;7.90;;
16037;SDS011;8123;50.906;6.172;2023-04-15T09:30:57;11.37;;;8.00;;
16037;SDS011;8123;50.906;6.172;2023-04-15T09:33:24;9.60;;;7.50;;
16037;SDS011;8123;50.906;6.172;2023-04-15T09:36:01;11.53;;;7.93;;
16037;SDS011;8123;50.906;6.172;2023-04-15T09:38:31;17.87;;;9.50;;
16037;SDS011;8123;50.906;6.172;2023-04-15T09:40:57;12.80;;;8.83;;
16037;SDS011;8123;50.906;6.172;2023-04-15T09:43:39;18.00;;;9.20;;
16037;SDS011;8123;50.906;6.172;2023-04-15T09:46:05;11.63;;;8.03;;
16037;SDS011;8123;50.906;6.172;2023-04-15T09:48:30;17.63;;;9.70;;
16037;SDS011;8123;50.906;6.172;2023-04-15T09:50:56;18.80;;;11.90;;
16037;SDS011;8123;50.906;6.172;2023-04-15T09:53:23;18.37;;;11.17;;
16037;SDS011;8123;50.906;6.172;2023-04-15T09:55:54;16.40;;;10.70;;
16037;SDS011;8123;50.906;6.172;2023-04-15T09:58:23;16.57;;;10.07;;
16037;SDS011;8123;50.906;6.172;2023-04-15T10:00:52;12.43;;;8.80;;
16037;SDS011;8123;50.906;6.172;2023-04-15T10:03:19;19.20;;;10.80;;
16037;SDS011;8123;50.906;6.172;2023-04-15T10:05:46;15.17;;;9.47;;
16037;SDS011;8123;50.906;6.172;2023-04-15T10:08:17;17.13;;;9.27;;
16037;SDS011;8123;50.906;6.172;2023-04-15T10:10:53;15.03;;;9.30;;
16037;SDS011;8123;50.906;6.172;2023-04-15T10:13:23;9.97;;;8.23;;
16037;SDS011;8123;50.906;6.172;2023-04-15T10:15:56;11.47;;;8.17;;
16037;SDS011;8123;50.906;6.172;2023-04-15T10:18:29;11.20;;;7.63;;
16037;SDS011;8123;50.906;6.172;2023-04-15T10:20:59;6.60;;;6.00;;
16037;SDS011;8123;50.906;6.172;2023-04-15T10:23:25;10.27;;;6.83;;
16037;SDS011;8123;50.906;6.172;2023-04-15T10:25:52;12.47;;;8.13;;
16037;SDS011;8123;50.906;6.172;2023-04-15T10:28:18;12.40;;;8.30;;
16037;SDS011;8123;50.906;6.172;2023-04-15T10:30:46;11.43;;;7.57;;
16037;SDS011;8123;50.906;6.172;2023-04-15T10:33:13;10.90;;;6.93;;
16037;SDS011;8123;50.906;6.172;2023-04-15T10:35:42;8.60;;;5.80;;
16037;SDS011;8123;50.906;6.172;2023-04-15T10:38:43;8.07;;;5.77;;
16037;SDS011;8123;50.906;6.172;2023-04-15T10:43:51;18.00;;;6.57;;
16037;SDS011;8123;50.906;6.172;2023-04-15T10:46:22;8.47;;;6.43;;
16037;SDS011;8123;50.906;6.172;2023-04-15T10:51:38;5.43;;;4.90;;
16037;SDS011;8123;50.906;6.172;2023-04-15T10:54:08;5.87;;;5.30;;
16037;SDS011;8123;50.906;6.172;2023-04-15T10:56:40;7.53;;;5.13;;
16037;SDS011;8123;50.906;6.172;2023-04-15T10:59:06;5.13;;;4.50;;
16037;SDS011;8123;50.906;6.172;2023-04-15T11:01:52;5.47;;;4.33;;
16037;SDS011;8123;50.906;6.172;2023-04-15T11:10:49;4.90;;;4.50;;
16037;SDS011;8123;50.906;6.172;2023-04-15T11:13:13;10.93;;;5.20;;
16037;SDS011;8123;50.906;6.172;2023-04-15T11:18:12;5.73;;;4.17;;
16037;SDS011;8123;50.906;6.172;2023-04-15T11:20:53;6.40;;;5.30;;
16037;SDS011;8123;50.906;6.172;2023-04-15T11:23:34;5.77;;;4.93;;
16037;SDS011;8123;50.906;6.172;2023-04-15T11:26:08;6.13;;;5.50;;
16037;SDS011;8123;50.906;6.172;2023-04-15T11:28:36;4.80;;;4.30;;
16037;SDS011;8123;50.906;6.172;2023-04-15T11:31:07;5.07;;;4.23;;
16037;SDS011;8123;50.906;6.172;2023-04-15T11:33:52;4.57;;;4.27;;
16037;SDS011;8123;50.906;6.172;2023-04-15T11:36:22;4.80;;;4.30;;
16037;SDS011;8123;50.906;6.172;2023-04-15T11:38:51;4.77;;;4.37;;
16037;SDS011;8123;50.906;6.172;2023-04-15T11:41:19;4.40;;;4.00;;
16037;SDS011;8123;50.906;6.172;2023-04-15T11:43:46;4.90;;;4.57;;
16037;SDS011;8123;50.906;6.172;2023-04-15T11:46:11;6.30;;;4.50;;
16037;SDS011;8123;50.906;6.172;2023-04-15T11:48:40;4.63;;;4.23;;
16037;SDS011;8123;50.906;6.172;2023-04-15T11:51:07;7.03;;;4.77;;
16037;SDS011;8123;50.906;6.172;2023-04-15T11:53:36;4.30;;;3.90;;
16037;SDS011;8123;50.906;6.172;2023-04-15T11:56:22;5.30;;;4.47;;
16037;SDS011;8123;50.906;6.172;2023-04-15T11:58:56;8.00;;;5.30;;
16037;SDS011;8123;50.906;6.172;2023-04-15T12:01:36;5.37;;;4.87;;
16037;SDS011;8123;50.906;6.172;2023-04-15T12:04:16;12.70;;;4.50;;
16037;SDS011;8123;50.906;6.172;2023-04-15T12:06:47;8.53;;;4.67;;
16037;SDS011;8123;50.906;6.172;2023-04-15T12:09:13;6.40;;;3.93;;
16037;SDS011;8123;50.906;6.172;2023-04-15T12:11:44;7.10;;;4.10;;
16037;SDS011;8123;50.906;6.172;2023-04-15T12:16:43;5.30;;;4.80;;
16037;SDS011;8123;50.906;6.172;2023-04-15T12:19:14;5.50;;;4.90;;
16037;SDS011;8123;50.906;6.172;2023-04-15T12:21:43;4.93;;;4.53;;
16037;SDS011;8123;50.906;6.172;2023-04-15T12:24:11;5.40;;;4.90;;
16037;SDS011;8123;50.906;6.172;2023-04-15T12:26:44;6.10;;;4.80;;
16037;SDS011;8123;50.906;6.172;2023-04-15T12:29:12;5.77;;;5.17;;
16037;SDS011;8123;50.906;6.172;2023-04-15T12:31:49;7.40;;;4.63;;
16037;SDS011;8123;50.906;6.172;2023-04-15T12:34:26;6.10;;;4.90;;
16037;SDS011;8123;50.906;6.172;2023-04-15T12:36:53;4.53;;;4.13;;
16037;SDS011;8123;50.906;6.172;2023-04-15T12:39:23;5.03;;;4.63;;
16037;SDS011;8123;50.906;6.172;2023-04-15T12:41:50;5.50;;;4.93;;
16037;SDS011;8123;50.906;6.172;2023-04-15T12:44:16;4.90;;;3.80;;
16037;SDS011;8123;50.906;6.172;2023-04-15T12:46:42;3.97;;;3.67;;
16037;SDS011;8123;50.906;6.172;2023-04-15T12:49:08;4.40;;;4.00;;
16037;SDS011;8123;50.906;6.172;2023-04-15T12:51:34;4.43;;;3.67;;
16037;SDS011;8123;50.906;6.172;2023-04-15T12:53:59;8.60;;;3.60;;
16037;SDS011;8123;50.906;6.172;2023-04-15T12:56:25;3.83;;;3.53;;
16037;SDS011;8123;50.906;6.172;2023-04-15T12:58:51;4.80;;;4.40;;
16037;SDS011;8123;50.906;6.172;2023-04-15T13:01:16;5.80;;;4.10;;
16037;SDS011;8123;50.906;6.172;2023-04-15T13:03:42;4.03;;;3.67;;
16037;SDS011;8123;50.906;6.172;2023-04-15T13:06:08;11.60;;;4.13;;
16037;SDS011;8123;50.906;6.172;2023-04-15T13:08:34;3.67;;;3.47;;
16037;SDS011;8123;50.906;6.172;2023-04-15T13:11:00;4.90;;;4.10;;
16037;SDS011;8123;50.906;6.172;2023-04-15T13:13:26;3.93;;;3.63;;
16037;SDS011;8123;50.906;6.172;2023-04-15T13:15:51;3.97;;;3.67;;
16037;SDS011;8123;50.906;6.172;2023-04-15T13:18:17;4.30;;;3.30;;
16037;SDS011;8123;50.906;6.172;2023-04-15T13:20:43;5.63;;;3.23;;
16037;SDS011;8123;50.906;6.172;2023-04-15T13:23:08;4.10;;;3.80;;
16037;SDS011;8123;50.906;6.172;2023-04-15T13:25:34;4.10;;;3.80;;
16037;SDS011;8123;50.906;6.172;2023-04-15T13:28:00;3.97;;;3.73;;
16037;SDS011;8123;50.906;6.172;2023-04-15T13:30:26;5.30;;;4.27;;
16037;SDS011;8123;50.906;6.172;2023-04-15T13:32:52;4.87;;;4.37;;
16037;SDS011;8123;50.906;6.172;2023-04-15T13:35:18;4.33;;;3.93;;
16037;SDS011;8123;50.906;6.172;2023-04-15T13:37:45;4.90;;;4.50;;
16037;SDS011;8123;50.906;6.172;2023-04-15T13:40:11;5.97;;;4.30;;
16037;SDS011;8123;50.906;6.172;2023-04-15T13:42:37;7.33;;;4.17;;
16037;SDS011;8123;50.906;6.172;2023-04-15T13:45:02;7.90;;;4.33;;
16037;SDS011;8123;50.906;6.172;2023-04-15T13:47:28;5.33;;;4.83;;
16037;SDS011;8123;50.906;6.172;2023-04-15T13:49:54;8.97;;;5.90;;
16037;SDS011;8123;50.906;6.172;2023-04-15T13:52:21;4.83;;;4.43;;
16037;SDS011;8123;50.906;6.172;2023-04-15T13:54:47;5.53;;;4.10;;
16037;SDS011;8123;50.906;6.172;2023-04-15T13:57:12;7.13;;;4.50;;
16037;SDS011;8123;50.906;6.172;2023-04-15T13:59:38;4.90;;;4.50;;
16037;SDS011;8123;50.906;6.172;2023-04-15T14:02:04;6.13;;;4.87;;
16037;SDS011;8123;50.906;6.172;2023-04-15T14:04:30;6.50;;;4.27;;
16037;SDS011;8123;50.906;6.172;2023-04-15T14:06:56;5.70;;;5.10;;
16037;SDS011;8123;50.906;6.172;2023-04-15T14:09:22;14.23;;;4.97;;
16037;SDS011;8123;50.906;6.172;2023-04-15T14:11:48;4.97;;;4.40;;
16037;SDS011;8123;50.906;6.172;2023-04-15T14:14:14;4.27;;;3.50;;
16037;SDS011;8123;50.906;6.172;2023-04-15T14:16:40;4.70;;;3.93;;
16037;SDS011;8123;50.906;6.172;2023-04-15T14:19:06;4.13;;;3.77;;
16037;SDS011;8123;50.906;6.172;2023-04-15T14:21:31;4.80;;;3.60;;
16037;SDS011;8123;50.906;6.172;2023-04-15T14:23:57;6.47;;;3.67;;
16037;SDS011;8123;50.906;6.172;2023-04-15T14:26:23;7.73;;;4.60;;
16037;SDS011;8123;50.906;6.172;2023-04-15T14:28:49;14.40;;;9.40;;
16037;SDS011;8123;50.906;6.172;2023-04-15T14:31:15;6.37;;;5.70;;
16037;SDS011;8123;50.906;6.172;2023-04-15T14:33:40;8.90;;;3.53;;
16037;SDS011;8123;50.906;6.172;2023-04-15T14:36:06;5.50;;;3.87;;
16037;SDS011;8123;50.906;6.172;2023-04-15T14:38:33;4.80;;;3.50;;
16037;SDS011;8123;50.906;6.172;2023-04-15T14:41:02;4.93;;;3.97;;
16037;SDS011;8123;50.906;6.172;2023-04-15T14:43:28;5.73;;;3.70;;
16037;SDS011;8123;50.906;6.172;2023-04-15T14:45:54;3.60;;;3.40;;
16037;SDS011;8123;50.906;6.172;2023-04-15T14:48:19;5.30;;;4.40;;
16037;SDS011;8123;50.906;6.172;2023-04-15T14:50:45;4.90;;;4.00;;
16037;SDS011;8123;50.906;6.172;2023-04-15T14:53:11;9.60;;;4.60;;
16037;SDS011;8123;50.906;6.172;2023-04-15T14:55:37;4.20;;;3.33;;
16037;SDS011;8123;50.906;6.172;2023-04-15T14:58:02;5.17;;;3.60;;
16037;SDS011;8123;50.906;6.172;2023-04-15T15:00:28;4.67;;;3.63;;
16037;SDS011;8123;50.906;6.172;2023-04-15T15:02:54;4.20;;;3.77;;
16037;SDS011;8123;50.906;6.172;2023-04-15T15:05:20;4.20;;;3.90;;
16037;SDS011;8123;50.906;6.172;2023-04-15T15:07:46;4.70;;;4.00;;